Time;durP1;ratioP1;P1;durP2;ratioP2;P2;SDS_P1;SDS_P2;PMS_P1;PMS_P2;Temp;Humidity;BMP_temperature;BMP_pressure;BME280_temperature;BME280_humidity;BME280_pressure;Samples;Min_cycle;Max_cycle;Signal;HPM_P1;HPM_P2
2022/04/10 00:01:28;;;;;;;7.78;3.60;;;;;;;;;;4456322;32;20246;-54
2022/04/10 00:03:53;;;;;;;8.95;4.00;;;;;;;;;;4453581;32;20235;-54
2022/04/10 00:06:19;;;;;;;8.30;4.03;;;;;;;;;;4458847;32;20636;-55
2022/04/10 00:08:44;;;;;;;9.35;4.30;;;;;;;;;;4464182;32;20604;-54
2022/04/10 00:11:10;;;;;;;10.52;4.47;;;;;;;;;;4458779;32;20691;-54
2022/04/10 00:13:36;;;;;;;6.18;3.78;;;;;;;;;;4448114;32;20228;-54
2022/04/10 00:16:02;;;;;;;9.80;3.75;;;;;;;;;;4450200;32;20383;-56
2022/04/10 00:18:28;;;;;;;8.45;3.85;;;;;;;;;;4454246;32;20228;-53
2022/04/10 00:20:53;;;;;;;10.32;5.00;;;;;;;;;;4464065;32;20306;-53
2022/04/10 00:23:19;;;;;;;11.80;4.93;;;;;;;;;;4463988;32;20240;-53
2022/04/10 00:25:45;;;;;;;12.68;6.57;;;;;;;;;;4458289;32;20221;-52
2022/04/10 00:28:10;;;;;;;16.92;6.20;;;;;;;;;;4448234;32;20714;-52
2022/04/10 00:30:36;;;;;;;14.00;5.90;;;;;;;;;;4456672;32;20624;-52
2022/04/10 00:33:01;;;;;;;12.65;6.20;;;;;;;;;;4455466;32;20228;-51
2022/04/10 00:35:27;;;;;;;16.25;8.27;;;;;;;;;;4458372;32;20343;-53
2022/04/10 00:37:52;;;;;;;14.55;6.78;;;;;;;;;;4463567;32;20314;-53
2022/04/10 00:40:18;;;;;;;16.75;6.53;;;;;;;;;;4463195;32;20327;-53
2022/04/10 00:42:48;;;;;;;24.90;9.38;;;;;;;;;;4447083;32;20280;-53
2022/04/10 00:45:16;;;;;;;17.80;7.10;;;;;;;;;;4453178;32;20337;-56
2022/04/10 00:47:44;;;;;;;17.67;7.43;;;;;;;;;;4453239;32;20664;-54
2022/04/10 00:50:11;;;;;;;23.62;8.20;;;;;;;;;;4449336;32;20494;-56
2022/04/10 00:52:40;;;;;;;17.77;6.53;;;;;;;;;;4456849;32;20266;-54
2022/04/10 00:55:07;;;;;;;14.50;6.25;;;;;;;;;;4451902;32;20212;-54
2022/04/10 00:57:32;;;;;;;16.05;6.65;;;;;;;;;;4461206;32;20271;-55
2022/04/10 00:59:58;;;;;;;14.60;6.07;;;;;;;;;;4463352;32;20279;-55
2022/04/10 01:02:23;;;;;;;18.52;6.28;;;;;;;;;;4463403;32;20591;-53
2022/04/10 01:04:49;;;;;;;16.27;5.68;;;;;;;;;;4458323;32;20276;-53
2022/04/10 01:07:16;;;;;;;14.13;5.68;;;;;;;;;;4447441;32;20224;-53
2022/04/10 01:09:42;;;;;;;13.30;6.25;;;;;;;;;;4447564;32;20615;-53
2022/04/10 01:12:08;;;;;;;11.88;6.00;;;;;;;;;;4453453;32;20232;-53
2022/04/10 01:14:34;;;;;;;11.98;5.35;;;;;;;;;;4463171;32;20592;-54
2022/04/10 01:16:59;;;;;;;8.98;4.10;;;;;;;;;;4463305;32;20239;-54
2022/04/10 01:19:25;;;;;;;12.37;4.68;;;;;;;;;;4462985;32;20338;-54
2022/04/10 01:21:53;;;;;;;12.43;4.15;;;;;;;;;;4460087;32;20245;-53
2022/04/10 01:24:19;;;;;;;10.63;4.07;;;;;;;;;;4446923;32;20256;-53
2022/04/10 01:26:45;;;;;;;7.18;4.00;;;;;;;;;;4447224;32;20584;-53
2022/04/10 01:29:13;;;;;;;6.30;3.47;;;;;;;;;;4449247;32;20270;-54
2022/04/10 01:31:47;;;;;;;8.07;4.30;;;;;;;;;;4445923;32;20287;-54
2022/04/10 01:34:14;;;;;;;10.05;5.05;;;;;;;;;;4447443;32;20467;-54
2022/04/10 01:36:41;;;;;;;9.75;4.40;;;;;;;;;;4447434;32;20265;-54
2022/04/10 01:39:09;;;;;;;13.10;4.32;;;;;;;;;;4447626;32;20638;-54
2022/04/10 01:41:34;;;;;;;10.82;4.10;;;;;;;;;;4446739;32;20244;-54
2022/04/10 01:44:00;;;;;;;19.23;5.72;;;;;;;;;;4447557;32;20711;-53
2022/04/10 01:46:28;;;;;;;16.45;4.95;;;;;;;;;;4447265;32;20629;-54
2022/04/10 01:48:54;;;;;;;9.85;5.78;;;;;;;;;;4459835;32;20712;-53
2022/04/10 01:51:19;;;;;;;10.30;5.32;;;;;;;;;;4461764;32;20299;-54
2022/04/10 01:53:45;;;;;;;11.23;5.05;;;;;;;;;;4462617;32;20757;-53
2022/04/10 01:56:11;;;;;;;23.98;6.87;;;;;;;;;;4462463;32;20355;-53
2022/04/10 01:58:41;;;;;;;12.60;5.90;;;;;;;;;;4462522;32;20252;-54
2022/04/10 02:01:09;;;;;;;16.80;6.15;;;;;;;;;;4437395;32;20367;-55
2022/04/10 02:03:35;;;;;;;13.43;6.22;;;;;;;;;;4447057;32;20299;-54
2022/04/10 02:06:01;;;;;;;11.18;5.87;;;;;;;;;;4449558;32;20766;-54
2022/04/10 02:08:27;;;;;;;21.58;6.97;;;;;;;;;;4447207;32;20220;-54
2022/04/10 02:10:53;;;;;;;15.32;5.80;;;;;;;;;;4445313;32;20351;-54
2022/04/10 02:13:19;;;;;;;22.73;7.90;;;;;;;;;;4446858;32;20341;-53
2022/04/10 02:15:45;;;;;;;12.30;6.22;;;;;;;;;;4447059;32;20263;-54
2022/04/10 02:18:10;;;;;;;12.90;6.32;;;;;;;;;;4447029;32;20228;-53
2022/04/10 02:20:36;;;;;;;17.02;7.75;;;;;;;;;;4459699;32;20234;-54
2022/04/10 02:23:01;;;;;;;22.58;6.37;;;;;;;;;;4462665;32;20327;-54
2022/04/10 02:25:27;;;;;;;21.65;7.87;;;;;;;;;;4452976;32;20272;-54
2022/04/10 02:27:52;;;;;;;17.35;7.30;;;;;;;;;;4446536;32;20371;-53
2022/04/10 02:30:18;;;;;;;21.45;7.82;;;;;;;;;;4454665;32;20249;-53
2022/04/10 02:32:44;;;;;;;13.95;6.78;;;;;;;;;;4462433;32;20319;-53
2022/04/10 02:35:10;;;;;;;16.77;6.20;;;;;;;;;;4461123;32;20310;-53
2022/04/10 02:37:35;;;;;;;14.82;5.68;;;;;;;;;;4460508;32;20362;-53
2022/04/10 02:40:04;;;;;;;13.27;5.53;;;;;;;;;;4445987;32;20290;-53
2022/04/10 02:42:33;;;;;;;29.08;11.35;;;;;;;;;;4448219;32;20338;-53
2022/04/10 02:44:59;;;;;;;28.33;10.38;;;;;;;;;;4453414;32;20255;-53
2022/04/10 02:47:25;;;;;;;15.32;6.90;;;;;;;;;;4447821;32;20830;-54
2022/04/10 02:49:50;;;;;;;14.23;6.75;;;;;;;;;;4444226;32;20248;-53
2022/04/10 02:52:15;;;;;;;17.85;6.78;;;;;;;;;;4446806;32;20205;-55
2022/04/10 02:54:41;;;;;;;20.62;7.25;;;;;;;;;;4445529;32;20735;-54
2022/04/10 02:57:06;;;;;;;15.07;6.15;;;;;;;;;;4446622;32;20592;-54
2022/04/10 02:59:32;;;;;;;14.43;5.20;;;;;;;;;;4446519;32;20332;-53
2022/04/10 03:01:57;;;;;;;22.65;5.82;;;;;;;;;;4446384;32;20262;-55
2022/04/10 03:04:23;;;;;;;17.10;7.32;;;;;;;;;;4447670;32;20300;-54
2022/04/10 03:06:48;;;;;;;13.55;7.32;;;;;;;;;;4449666;32;20247;-55
2022/04/10 03:09:13;;;;;;;16.37;6.57;;;;;;;;;;4447033;32;20232;-54
2022/04/10 03:11:39;;;;;;;11.73;5.62;;;;;;;;;;4452270;32;20236;-54
2022/04/10 03:14:04;;;;;;;8.85;4.43;;;;;;;;;;4465073;32;20727;-54
2022/04/10 03:16:30;;;;;;;11.43;4.53;;;;;;;;;;4457006;32;20292;-54
2022/04/10 03:18:55;;;;;;;13.88;4.93;;;;;;;;;;4449453;32;20231;-54
2022/04/10 03:21:21;;;;;;;11.07;4.62;;;;;;;;;;4448957;32;20244;-54
2022/04/10 03:23:46;;;;;;;19.35;7.85;;;;;;;;;;4449650;32;20229;-55
2022/04/10 03:26:12;;;;;;;18.02;8.32;;;;;;;;;;4452151;32;20224;-54
2022/04/10 03:28:37;;;;;;;23.73;8.52;;;;;;;;;;4465327;32;20584;-53
2022/04/10 03:31:03;;;;;;;26.17;9.63;;;;;;;;;;4463447;32;20406;-54
2022/04/10 03:33:28;;;;;;;24.85;8.48;;;;;;;;;;4463928;32;20533;-54
2022/04/10 03:35:55;;;;;;;19.45;8.18;;;;;;;;;;4452358;32;20714;-54
2022/04/10 03:38:21;;;;;;;23.87;10.18;;;;;;;;;;4449621;32;20298;-54
2022/04/10 03:40:46;;;;;;;19.77;9.30;;;;;;;;;;4449082;32;20311;-54
2022/04/10 03:43:12;;;;;;;33.05;9.75;;;;;;;;;;4463846;32;20553;-54
2022/04/10 03:45:41;;;;;;;14.80;8.77;;;;;;;;;;4454856;32;20291;-54
2022/04/10 03:48:08;;;;;;;22.70;9.40;;;;;;;;;;4457605;32;20394;-53
2022/04/10 03:50:34;;;;;;;22.52;8.57;;;;;;;;;;4452107;32;20327;-54
2022/04/10 03:53:00;;;;;;;25.08;8.45;;;;;;;;;;4449009;32;20291;-54
2022/04/10 03:55:26;;;;;;;13.98;6.15;;;;;;;;;;4448541;32;20261;-54
2022/04/10 03:57:51;;;;;;;10.63;5.82;;;;;;;;;;4450159;32;20240;-52
2022/04/10 04:00:18;;;;;;;12.13;4.97;;;;;;;;;;4463352;32;20335;-55
2022/04/10 04:02:44;;;;;;;18.02;6.25;;;;;;;;;;4464366;32;20236;-53
2022/04/10 04:05:10;;;;;;;22.60;6.53;;;;;;;;;;4458346;32;20275;-54
2022/04/10 04:07:35;;;;;;;17.40;4.95;;;;;;;;;;4448759;32;20266;-54
2022/04/10 04:10:02;;;;;;;12.75;5.45;;;;;;;;;;4448275;32;20291;-54
2022/04/10 04:12:27;;;;;;;10.18;5.57;;;;;;;;;;4448522;32;20225;-53
2022/04/10 04:14:53;;;;;;;9.88;5.18;;;;;;;;;;4453769;32;20291;-54
2022/04/10 04:17:18;;;;;;;15.15;6.95;;;;;;;;;;4461047;32;20264;-53
2022/04/10 04:19:46;;;;;;;15.80;5.53;;;;;;;;;;4448434;32;20347;-52
2022/04/10 04:22:11;;;;;;;13.98;6.97;;;;;;;;;;4448224;32;20280;-52
2022/04/10 04:24:37;;;;;;;15.68;4.95;;;;;;;;;;4460417;32;20236;-52
2022/04/10 04:27:02;;;;;;;9.15;5.55;;;;;;;;;;4464077;32;20816;-53
2022/04/10 04:29:28;;;;;;;13.27;3.80;;;;;;;;;;4464087;32;20670;-55
2022/04/10 04:31:53;;;;;;;10.30;4.37;;;;;;;;;;4456606;32;20232;-53
2022/04/10 04:34:20;;;;;;;18.50;5.47;;;;;;;;;;4448292;32;20315;-54
2022/04/10 04:36:46;;;;;;;15.05;7.43;;;;;;;;;;4448379;32;20200;-54
2022/04/10 04:39:12;;;;;;;12.93;6.07;;;;;;;;;;4459744;32;20593;-61
2022/04/10 04:41:37;;;;;;;7.45;4.30;;;;;;;;;;4464344;32;20204;-53
2022/04/10 04:44:03;;;;;;;9.60;5.75;;;;;;;;;;4463915;32;20482;-53
2022/04/10 04:46:28;;;;;;;13.90;7.00;;;;;;;;;;4451907;32;20259;-53
2022/04/10 04:48:54;;;;;;;11.43;5.95;;;;;;;;;;4449099;32;20298;-53
2022/04/10 04:51:20;;;;;;;14.90;5.90;;;;;;;;;;4447845;32;20552;-53
2022/04/10 04:53:45;;;;;;;13.32;6.37;;;;;;;;;;4446885;32;20739;-54
2022/04/10 04:56:11;;;;;;;16.60;7.47;;;;;;;;;;4448176;32;20310;-53
2022/04/10 04:58:36;;;;;;;16.70;9.10;;;;;;;;;;4458046;32;20753;-53
2022/04/10 05:01:02;;;;;;;14.80;8.90;;;;;;;;;;4457440;32;20239;-53
2022/04/10 05:03:28;;;;;;;23.85;8.90;;;;;;;;;;4460022;32;20565;-54
2022/04/10 05:05:53;;;;;;;17.62;7.93;;;;;;;;;;4451186;32;20335;-54
2022/04/10 05:08:21;;;;;;;22.57;11.17;;;;;;;;;;4452842;32;20295;-53
2022/04/10 05:10:47;;;;;;;33.45;15.52;;;;;;;;;;4461490;32;20556;-56
2022/04/10 05:13:12;;;;;;;24.08;13.45;;;;;;;;;;4459296;32;20205;-55
2022/04/10 05:15:38;;;;;;;31.77;17.02;;;;;;;;;;4446564;32;20378;-55
2022/04/10 05:18:04;;;;;;;40.80;22.00;;;;;;;;;;4445858;32;20625;-56
2022/04/10 05:20:29;;;;;;;81.75;45.67;;;;;;;;;;4446240;32;20295;-55
2022/04/10 05:22:55;;;;;;;30.25;16.73;;;;;;;;;;4447249;32;20307;-55
2022/04/10 05:25:21;;;;;;;41.65;15.52;;;;;;;;;;4460798;32;20227;-54
2022/04/10 05:27:46;;;;;;;26.95;12.55;;;;;;;;;;4456527;32;20232;-55
2022/04/10 05:30:12;;;;;;;22.33;10.45;;;;;;;;;;4445516;32;20228;-54
2022/04/10 05:32:42;;;;;;;17.65;8.70;;;;;;;;;;4455122;32;20228;-54
2022/04/10 05:35:08;;;;;;;20.48;9.48;;;;;;;;;;4453378;32;20220;-53
2022/04/10 05:37:34;;;;;;;24.08;10.32;;;;;;;;;;4454084;32;20230;-54
2022/04/10 05:39:59;;;;;;;28.50;13.52;;;;;;;;;;4448488;32;20712;-53
2022/04/10 05:42:24;;;;;;;20.92;11.27;;;;;;;;;;4447630;32;20743;-53
2022/04/10 05:44:50;;;;;;;21.33;10.10;;;;;;;;;;4455339;32;20283;-54
2022/04/10 05:47:15;;;;;;;25.67;10.25;;;;;;;;;;4448938;32;20621;-52
2022/04/10 05:49:40;;;;;;;28.00;11.95;;;;;;;;;;4447259;32;20213;-54
2022/04/10 05:52:07;;;;;;;31.75;12.82;;;;;;;;;;4447361;32;20229;-54
2022/04/10 05:54:33;;;;;;;21.17;12.82;;;;;;;;;;4446799;32;20782;-54
2022/04/10 05:56:58;;;;;;;31.17;14.38;;;;;;;;;;4447659;32;20279;-55
2022/04/10 05:59:24;;;;;;;18.87;10.65;;;;;;;;;;4447307;32;20282;-54
2022/04/10 06:01:49;;;;;;;42.10;18.27;;;;;;;;;;4447458;32;20260;-53
2022/04/10 06:04:16;;;;;;;26.15;13.05;;;;;;;;;;4460125;32;20224;-54
2022/04/10 06:06:41;;;;;;;23.50;12.63;;;;;;;;;;4446979;32;20688;-54
2022/04/10 06:09:07;;;;;;;21.07;11.63;;;;;;;;;;4447125;32;20224;-54
2022/04/10 06:11:34;;;;;;;30.90;12.73;;;;;;;;;;4452021;32;20290;-53
2022/04/10 06:13:59;;;;;;;21.58;10.77;;;;;;;;;;4456001;32;20552;-54
2022/04/10 06:16:24;;;;;;;25.27;13.13;;;;;;;;;;4446953;32;20269;-54
2022/04/10 06:18:50;;;;;;;20.67;10.98;;;;;;;;;;4447415;32;20567;-54
2022/04/10 06:21:15;;;;;;;29.33;12.40;;;;;;;;;;4447173;32;20303;-54
2022/04/10 06:23:41;;;;;;;22.87;11.82;;;;;;;;;;4446732;32;20584;-54
2022/04/10 06:26:06;;;;;;;50.63;23.10;;;;;;;;;;4447363;32;20291;-55
2022/04/10 06:28:32;;;;;;;34.33;17.10;;;;;;;;;;4456534;32;20372;-55
2022/04/10 06:30:57;;;;;;;24.00;14.32;;;;;;;;;;4454122;32;20318;-55
2022/04/10 06:33:22;;;;;;;33.38;18.25;;;;;;;;;;4457131;32;20506;-54
2022/04/10 06:35:48;;;;;;;31.05;15.82;;;;;;;;;;4465217;32;20338;-54
2022/04/10 06:38:14;;;;;;;33.97;15.03;;;;;;;;;;4461607;32;20437;-54
2022/04/10 06:40:39;;;;;;;38.90;17.17;;;;;;;;;;4462275;32;20667;-55
2022/04/10 06:43:06;;;;;;;29.40;13.18;;;;;;;;;;4462860;32;20306;-55
2022/04/10 06:45:31;;;;;;;25.42;11.98;;;;;;;;;;4458656;32;20308;-55
2022/04/10 06:47:57;;;;;;;21.70;11.67;;;;;;;;;;4448618;32;20247;-54
2022/04/10 06:50:22;;;;;;;17.37;9.45;;;;;;;;;;4449389;32;20221;-53
2022/04/10 06:52:48;;;;;;;12.32;5.85;;;;;;;;;;4451976;32;20608;-53
2022/04/10 06:55:13;;;;;;;10.98;5.18;;;;;;;;;;4448825;32;20332;-53
2022/04/10 06:57:39;;;;;;;7.27;3.70;;;;;;;;;;4451802;32;20254;-53
2022/04/10 07:00:05;;;;;;;7.10;3.50;;;;;;;;;;4449171;32;20325;-53
2022/04/10 07:02:32;;;;;;;22.52;11.77;;;;;;;;;;4450040;32;20942;-55
2022/04/10 07:04:57;;;;;;;19.12;8.82;;;;;;;;;;4454377;32;20231;-55
2022/04/10 07:07:22;;;;;;;18.95;8.65;;;;;;;;;;4455956;32;20447;-55
2022/04/10 07:09:48;;;;;;;34.05;12.07;;;;;;;;;;4447595;32;20720;-55
2022/04/10 07:12:13;;;;;;;37.75;16.67;;;;;;;;;;4454038;32;20601;-54
2022/04/10 07:14:39;;;;;;;27.85;12.73;;;;;;;;;;4465451;32;20267;-55
2022/04/10 07:17:05;;;;;;;13.02;7.47;;;;;;;;;;4464769;32;20691;-55
2022/04/10 07:19:30;;;;;;;14.80;8.05;;;;;;;;;;4464025;32;20312;-54
2022/04/10 07:24:41;;;;;;;10.15;5.00;;;;;;;;;;4450982;32;20231;-54
2022/04/10 07:27:06;;;;;;;15.33;6.73;;;;;;;;;;4453556;32;20653;-54
2022/04/10 07:29:32;;;;;;;13.50;5.90;;;;;;;;;;4460567;32;20371;-54
2022/04/10 07:31:57;;;;;;;8.45;5.05;;;;;;;;;;4450415;32;20660;-54
2022/04/10 07:34:23;;;;;;;16.60;7.03;;;;;;;;;;4455609;32;20319;-53
2022/04/10 07:36:48;;;;;;;7.53;4.53;;;;;;;;;;4463424;32;20251;-53
2022/04/10 07:39:14;;;;;;;12.50;3.95;;;;;;;;;;4460829;32;20256;-53
2022/04/10 07:41:39;;;;;;;12.60;4.07;;;;;;;;;;4452433;32;20220;-53
2022/04/10 07:44:05;;;;;;;7.90;5.50;;;;;;;;;;4464318;32;20343;-53
2022/04/10 07:49:15;;;;;;;16.93;6.20;;;;;;;;;;4450800;32;20286;-53
2022/04/10 07:51:40;;;;;;;9.80;6.23;;;;;;;;;;4455496;32;20259;-54
2022/04/10 07:54:06;;;;;;;11.32;5.18;;;;;;;;;;4452079;32;20225;-54
2022/04/10 07:56:31;;;;;;;9.10;4.30;;;;;;;;;;4455306;32;20291;-53
2022/04/10 07:58:57;;;;;;;11.50;4.78;;;;;;;;;;4458516;32;20216;-52
2022/04/10 08:01:22;;;;;;;7.37;4.65;;;;;;;;;;4456487;32;20273;-53
2022/04/10 08:03:51;;;;;;;8.27;4.78;;;;;;;;;;4453985;32;20314;-54
2022/04/10 08:06:21;;;;;;;6.10;4.03;;;;;;;;;;4451695;32;20323;-53
2022/04/10 08:08:47;;;;;;;9.50;3.93;;;;;;;;;;4448935;32;20216;-52
2022/04/10 08:11:12;;;;;;;7.15;4.95;;;;;;;;;;4447427;32;20349;-52
2022/04/10 08:13:37;;;;;;;22.25;7.10;;;;;;;;;;4449117;32;20583;-53
2022/04/10 08:16:03;;;;;;;9.77;6.10;;;;;;;;;;4446948;32;20339;-53
2022/04/10 08:18:29;;;;;;;9.77;4.93;;;;;;;;;;4448863;32;20275;-52
2022/04/10 08:20:54;;;;;;;10.85;5.75;;;;;;;;;;4448947;32;20343;-51
2022/04/10 08:23:20;;;;;;;15.80;8.10;;;;;;;;;;4451118;32;20232;-51
2022/04/10 08:25:46;;;;;;;16.02;8.30;;;;;;;;;;4449336;32;20355;-51
2022/04/10 08:28:12;;;;;;;8.10;5.12;;;;;;;;;;4450868;32;20241;-52
2022/04/10 08:30:39;;;;;;;9.02;4.95;;;;;;;;;;4448809;32;20287;-52
2022/04/10 08:33:05;;;;;;;16.15;6.20;;;;;;;;;;4464038;32;20425;-53
2022/04/10 08:35:31;;;;;;;11.12;5.95;;;;;;;;;;4463379;32;20641;-53
2022/04/10 08:37:57;;;;;;;19.27;11.38;;;;;;;;;;4462582;32;20321;-52
2022/04/10 08:40:22;;;;;;;13.60;7.60;;;;;;;;;;4449343;32;20317;-53
2022/04/10 08:42:48;;;;;;;18.20;8.48;;;;;;;;;;4447077;32;20565;-52
2022/04/10 08:45:14;;;;;;;11.50;6.75;;;;;;;;;;4447115;32;20307;-52
2022/04/10 08:47:40;;;;;;;16.60;6.47;;;;;;;;;;4445422;32;20233;-53
2022/04/10 08:50:07;;;;;;;12.77;6.32;;;;;;;;;;4446651;32;20330;-52
2022/04/10 08:52:33;;;;;;;10.77;6.40;;;;;;;;;;4457649;32;20236;-52
2022/04/10 08:54:59;;;;;;;28.58;15.27;;;;;;;;;;4455116;32;20220;-53
2022/04/10 08:57:24;;;;;;;19.58;10.15;;;;;;;;;;4445883;32;20389;-53
2022/04/10 08:59:49;;;;;;;20.95;13.35;;;;;;;;;;4446450;32;20291;-53
2022/04/10 09:02:15;;;;;;;15.47;9.53;;;;;;;;;;4446688;32;20217;-53
2022/04/10 09:04:41;;;;;;;13.37;7.90;;;;;;;;;;4446525;32;20278;-53
2022/04/10 09:07:11;;;;;;;11.77;4.97;;;;;;;;;;4446139;32;20660;-53
2022/04/10 09:09:41;;;;;;;9.98;5.60;;;;;;;;;;4448293;32;20254;-53
2022/04/10 09:12:07;;;;;;;33.88;13.98;;;;;;;;;;4449113;32;20221;-52
2022/04/10 09:14:41;;;;;;;41.47;16.63;;;;;;;;;;4446855;32;20330;-53
2022/04/10 09:17:17;;;;;;;25.80;11.43;;;;;;;;;;4448222;32;20212;-53
2022/04/10 09:20:01;;;;;;;11.70;7.00;;;;;;;;;;4447572;32;20218;-53
2022/04/10 09:22:38;;;;;;;9.47;6.27;;;;;;;;;;4450040;32;20345;-52
2022/04/10 09:25:07;;;;;;;13.05;5.00;;;;;;;;;;4458629;32;20707;-53
2022/04/10 09:27:35;;;;;;;26.10;12.67;;;;;;;;;;4457849;32;20232;-53
2022/04/10 09:30:02;;;;;;;40.83;17.67;;;;;;;;;;4463030;32;20294;-54
2022/04/10 09:32:47;;;;;;;31.17;12.83;;;;;;;;;;4462276;32;20292;-53
2022/04/10 09:35:15;;;;;;;28.08;15.57;;;;;;;;;;4446357;32;20212;-53
2022/04/10 09:37:55;;;;;;;27.07;12.30;;;;;;;;;;4457233;32;20295;-53
2022/04/10 09:40:33;;;;;;;21.80;9.53;;;;;;;;;;4461946;32;20222;-53
2022/04/10 09:43:12;;;;;;;7.27;3.97;;;;;;;;;;4446929;32;20617;-54
2022/04/10 09:45:43;;;;;;;9.55;4.90;;;;;;;;;;4454983;32;20211;-54
2022/04/10 09:48:32;;;;;;;13.33;6.27;;;;;;;;;;4461571;32;20354;-55
2022/04/10 09:51:01;;;;;;;6.60;3.58;;;;;;;;;;4462826;32;20256;-55
2022/04/10 09:53:27;;;;;;;4.73;2.60;;;;;;;;;;4462984;32;20763;-54
2022/04/10 09:55:54;;;;;;;5.68;3.20;;;;;;;;;;4451210;32;20353;-54
2022/04/10 09:58:20;;;;;;;9.00;5.97;;;;;;;;;;4447760;32;20265;-53
2022/04/10 10:00:47;;;;;;;7.57;4.05;;;;;;;;;;4450458;32;20300;-55
2022/04/10 10:03:14;;;;;;;6.17;4.30;;;;;;;;;;4447292;32;20265;-53
2022/04/10 10:05:40;;;;;;;6.93;4.23;;;;;;;;;;4433187;32;20638;-53
2022/04/10 10:08:07;;;;;;;8.87;5.77;;;;;;;;;;4452733;32;20315;-55
2022/04/10 10:10:34;;;;;;;20.27;6.03;;;;;;;;;;4446398;32;20563;-55
2022/04/10 10:13:07;;;;;;;9.10;4.60;;;;;;;;;;4454402;32;20609;-54
2022/04/10 10:15:36;;;;;;;5.60;3.17;;;;;;;;;;4456551;32;20272;-54
2022/04/10 10:18:05;;;;;;;11.20;6.00;;;;;;;;;;4449102;32;20595;-55
2022/04/10 10:20:30;;;;;;;4.20;2.62;;;;;;;;;;4449191;32;20212;-56
2022/04/10 10:23:00;;;;;;;10.60;6.70;;;;;;;;;;4451071;32;20262;-55
2022/04/10 10:25:53;;;;;;;7.23;3.53;;;;;;;;;;4451988;32;20209;-54
2022/04/10 10:28:21;;;;;;;10.60;4.13;;;;;;;;;;4458246;32;20308;-55
2022/04/10 10:31:08;;;;;;;9.93;3.67;;;;;;;;;;4465312;32;21202;-54
2022/04/10 10:33:34;;;;;;;10.07;3.97;;;;;;;;;;4465455;32;20847;-55
2022/04/10 10:36:01;;;;;;;6.63;4.57;;;;;;;;;;4465236;32;20243;-55
2022/04/10 10:38:31;;;;;;;5.50;1.93;;;;;;;;;;4457427;32;20656;-56
2022/04/10 10:41:12;;;;;;;7.07;4.07;;;;;;;;;;4449914;32;20330;-55
2022/04/10 10:43:37;;;;;;;6.00;4.20;;;;;;;;;;4450558;32;20229;-56
2022/04/10 10:46:18;;;;;;;6.93;3.83;;;;;;;;;;4450624;32;20340;-54
2022/04/10 10:48:43;;;;;;;5.60;2.97;;;;;;;;;;4453261;32;20815;-54
2022/04/10 10:51:09;;;;;;;4.43;3.20;;;;;;;;;;4450937;32;20291;-54
2022/04/10 10:53:42;;;;;;;6.97;4.53;;;;;;;;;;4451595;32;20260;-55
2022/04/10 10:56:13;;;;;;;18.37;11.20;;;;;;;;;;4451280;32;20213;-56
2022/04/10 10:58:40;;;;;;;14.90;7.03;;;;;;;;;;4451694;32;20273;-54
2022/04/10 11:01:07;;;;;;;13.43;8.10;;;;;;;;;;4460327;32;20216;-55
2022/04/10 11:03:53;;;;;;;37.27;19.80;;;;;;;;;;4467301;32;20228;-55
2022/04/10 11:06:20;;;;;;;27.47;14.20;;;;;;;;;;4452948;32;20238;-55
2022/04/10 11:08:46;;;;;;;27.33;14.80;;;;;;;;;;4451091;32;20709;-56
2022/04/10 11:11:18;;;;;;;19.67;12.53;;;;;;;;;;4451032;32;20283;-55
2022/04/10 11:13:44;;;;;;;8.00;3.73;;;;;;;;;;4451164;32;20399;-55
2022/04/10 11:16:11;;;;;;;8.40;4.03;;;;;;;;;;4451086;32;20264;-55
2022/04/10 11:18:42;;;;;;;8.87;5.47;;;;;;;;;;4451480;32;20652;-55
2022/04/10 11:21:15;;;;;;;8.80;5.53;;;;;;;;;;4451307;32;20188;-55
2022/04/10 11:23:44;;;;;;;10.53;4.80;;;;;;;;;;4451405;32;20327;-55
2022/04/10 11:26:14;;;;;;;10.43;5.63;;;;;;;;;;4451207;32;20613;-54
2022/04/10 11:28:54;;;;;;;7.33;3.10;;;;;;;;;;4451405;32;20316;-55
2022/04/10 11:31:37;;;;;;;8.03;2.97;;;;;;;;;;4450442;32;20620;-55
2022/04/10 11:34:10;;;;;;;12.00;4.80;;;;;;;;;;4448924;32;20753;-55
2022/04/10 11:36:48;;;;;;;5.67;3.97;;;;;;;;;;4449036;32;20219;-55
2022/04/10 11:39:13;;;;;;;10.30;5.90;;;;;;;;;;4448772;32;20364;-55
2022/04/10 11:41:41;;;;;;;7.87;4.57;;;;;;;;;;4448751;32;20208;-55
2022/04/10 11:44:08;;;;;;;6.80;4.10;;;;;;;;;;4448581;32;20262;-55
2022/04/10 11:46:34;;;;;;;13.07;8.53;;;;;;;;;;4447968;32;20444;-55
2022/04/10 11:49:00;;;;;;;4.47;2.83;;;;;;;;;;4449271;32;20236;-55
2022/04/10 11:51:26;;;;;;;5.07;3.50;;;;;;;;;;4447945;32;20227;-54
2022/04/10 11:53:55;;;;;;;43.93;15.30;;;;;;;;;;4448638;32;20300;-54
2022/04/10 11:56:21;;;;;;;23.13;11.73;;;;;;;;;;4447245;32;20217;-54
2022/04/10 11:58:47;;;;;;;7.63;4.57;;;;;;;;;;4448087;32;20247;-54
2022/04/10 12:01:14;;;;;;;7.93;4.23;;;;;;;;;;4457957;32;20286;-54
2022/04/10 12:03:41;;;;;;;9.80;5.77;;;;;;;;;;4463375;32;20259;-55
2022/04/10 12:06:09;;;;;;;16.23;6.87;;;;;;;;;;4450085;32;20225;-55
2022/04/10 12:08:35;;;;;;;13.13;7.23;;;;;;;;;;4434402;32;20326;-55
2022/04/10 12:11:01;;;;;;;18.17;9.93;;;;;;;;;;4446973;32;20325;-55
2022/04/10 12:13:29;;;;;;;9.73;5.90;;;;;;;;;;4447971;32;20250;-55
2022/04/10 12:16:08;;;;;;;25.00;11.20;;;;;;;;;;4448268;32;20217;-55
2022/04/10 12:18:46;;;;;;;13.00;6.10;;;;;;;;;;4448244;32;20644;-55
2022/04/10 12:21:11;;;;;;;6.60;3.40;;;;;;;;;;4448065;32;20226;-55
2022/04/10 12:23:37;;;;;;;4.77;2.93;;;;;;;;;;4446370;32;20548;-55
2022/04/10 12:26:02;;;;;;;4.53;2.90;;;;;;;;;;4446583;32;20413;-55
2022/04/10 12:28:29;;;;;;;4.93;2.80;;;;;;;;;;4447630;32;20262;-56
2022/04/10 12:30:59;;;;;;;2.63;2.03;;;;;;;;;;4448031;32;20211;-54
2022/04/10 12:33:26;;;;;;;3.57;2.60;;;;;;;;;;4447400;32;20280;-55
2022/04/10 12:35:51;;;;;;;4.73;1.63;;;;;;;;;;4447865;32;20197;-56
2022/04/10 12:38:17;;;;;;;11.83;6.30;;;;;;;;;;4447629;32;20220;-55
2022/04/10 12:40:42;;;;;;;11.97;5.00;;;;;;;;;;4447738;32;20305;-55
2022/04/10 12:43:09;;;;;;;8.20;5.07;;;;;;;;;;4454767;32;20262;-55
2022/04/10 12:45:37;;;;;;;14.33;6.77;;;;;;;;;;4447382;32;20193;-55
2022/04/10 12:48:22;;;;;;;8.70;5.37;;;;;;;;;;4448584;32;20382;-55
2022/04/10 12:51:12;;;;;;;6.87;4.70;;;;;;;;;;4447567;32;20286;-55
2022/04/10 12:53:38;;;;;;;20.23;8.73;;;;;;;;;;4446269;32;20232;-55
2022/04/10 12:56:24;;;;;;;17.53;8.30;;;;;;;;;;4447578;32;20306;-55
2022/04/10 12:58:51;;;;;;;10.73;4.27;;;;;;;;;;4447100;32;20232;-55
2022/04/10 13:01:27;;;;;;;24.37;10.97;;;;;;;;;;4447238;32;20224;-54
2022/04/10 13:03:52;;;;;;;17.33;8.63;;;;;;;;;;4446972;32;20216;-54
2022/04/10 13:06:19;;;;;;;20.23;12.20;;;;;;;;;;4451299;32;20251;-54
2022/04/10 13:08:45;;;;;;;12.03;6.80;;;;;;;;;;4446854;32;20314;-54
2022/04/10 13:11:12;;;;;;;11.93;7.87;;;;;;;;;;4447094;32;20314;-55
2022/04/10 13:14:03;;;;;;;16.30;9.53;;;;;;;;;;4447400;32;20568;-55
2022/04/10 13:16:32;;;;;;;12.47;6.77;;;;;;;;;;4447064;32;20806;-55
2022/04/10 13:19:16;;;;;;;18.63;7.47;;;;;;;;;;4446027;32;20320;-55
2022/04/10 13:21:43;;;;;;;16.20;5.57;;;;;;;;;;4446747;32;20378;-54
2022/04/10 13:24:09;;;;;;;11.03;5.87;;;;;;;;;;4446401;32;20683;-56
2022/04/10 13:26:38;;;;;;;7.97;5.60;;;;;;;;;;4447130;32;20328;-55
2022/04/10 13:29:05;;;;;;;8.77;3.83;;;;;;;;;;4446881;32;20304;-55
2022/04/10 13:31:32;;;;;;;12.47;5.20;;;;;;;;;;4446892;32;20216;-55
2022/04/10 13:33:58;;;;;;;8.37;4.27;;;;;;;;;;4446959;32;20256;-55
2022/04/10 13:36:24;;;;;;;8.67;5.90;;;;;;;;;;4446524;32;20271;-56
2022/04/10 13:38:49;;;;;;;5.97;3.57;;;;;;;;;;4450528;32;20283;-55
2022/04/10 13:41:15;;;;;;;4.87;3.23;;;;;;;;;;4446352;32;20314;-55
2022/04/10 13:43:41;;;;;;;7.07;4.17;;;;;;;;;;4445988;32;20544;-55
2022/04/10 13:46:06;;;;;;;7.57;5.00;;;;;;;;;;4446302;32;20653;-55
2022/04/10 13:48:32;;;;;;;7.43;5.17;;;;;;;;;;4447839;32;20268;-55
2022/04/10 13:50:58;;;;;;;10.80;6.97;;;;;;;;;;4445958;32;20290;-55
2022/04/10 13:53:23;;;;;;;14.63;9.20;;;;;;;;;;4446132;32;20339;-56
2022/04/10 13:55:49;;;;;;;4.93;2.53;;;;;;;;;;4445912;32;20299;-55
2022/04/10 13:58:15;;;;;;;6.77;3.57;;;;;;;;;;4446116;32;20281;-55
2022/04/10 14:00:40;;;;;;;8.47;4.83;;;;;;;;;;4444671;32;20334;-55
2022/04/10 14:03:06;;;;;;;5.13;3.00;;;;;;;;;;4445960;32;20228;-55
2022/04/10 14:05:31;;;;;;;5.70;3.60;;;;;;;;;;4446034;32;20276;-55
2022/04/10 14:07:57;;;;;;;3.47;2.90;;;;;;;;;;4446275;32;20287;-55
2022/04/10 14:10:22;;;;;;;3.07;2.03;;;;;;;;;;4446146;32;20355;-55
2022/04/10 14:12:48;;;;;;;4.60;3.33;;;;;;;;;;4446196;32;20266;-56
2022/04/10 14:15:14;;;;;;;3.40;2.70;;;;;;;;;;4446649;32;20291;-56
2022/04/10 14:17:39;;;;;;;3.37;2.03;;;;;;;;;;4446009;32;20372;-53
2022/04/10 14:20:06;;;;;;;6.23;3.77;;;;;;;;;;4446713;32;20362;-54
2022/04/10 14:22:31;;;;;;;9.13;5.37;;;;;;;;;;4445209;32;20240;-54
2022/04/10 14:24:57;;;;;;;7.87;5.27;;;;;;;;;;4445128;32;20307;-54
2022/04/10 14:27:22;;;;;;;4.07;2.97;;;;;;;;;;4444677;32;20645;-54
2022/04/10 14:29:48;;;;;;;3.13;2.03;;;;;;;;;;4445043;32;20337;-54
2022/04/10 14:32:13;;;;;;;6.47;4.40;;;;;;;;;;4445989;32;20303;-54
2022/04/10 14:34:39;;;;;;;6.90;4.30;;;;;;;;;;4446466;32;20327;-54
2022/04/10 14:37:06;;;;;;;6.07;4.17;;;;;;;;;;4451597;32;20645;-54